Time;durP1;ratioP1;P1;durP2;ratioP2;P2;SDS_P1;SDS_P2;PMS_P1;PMS_P2;Temp;Humidity;BMP_temperature;BMP_pressure;BME280_temperature;BME280_humidity;BME280_pressure;Samples;Min_cycle;Max_cycle;Signal;HPM_P1;HPM_P2
2023/04/10 00:00:28;;;;;;;;;;;;;;;12.81;44.87;95230.06;5040331;28;20427;-63
2023/04/10 00:02:55;;;;;;;;;;;;;;;12.40;45.91;95227.59;5033922;28;20363;-64
2023/04/10 00:05:22;;;;;;;;;;;;;;;12.58;46.19;95220.03;5050445;28;19929;-63
2023/04/10 00:07:49;;;;;;;;;;;;;;;12.95;45.01;95225.91;5049780;28;20427;-63
2023/04/10 00:10:15;;;;;;;;;;;;;;;12.90;44.58;95222.47;5032615;28;19951;-65
2023/04/10 00:12:42;;;;;;;;;;;;;;;12.92;44.37;95221.13;5041482;28;19925;-63
2023/04/10 00:15:09;;;;;;;;;;;;;;;13.03;44.51;95220.13;5044808;28;20424;-65
2023/04/10 00:17:36;;;;;;;;;;;;;;;13.13;43.87;95214.88;5040628;28;20067;-63
2023/04/10 00:20:03;;;;;;;;;;;;;;;13.17;43.79;95212.53;5036902;28;20019;-62
2023/04/10 00:22:31;;;;;;;;;;;;;;;13.12;42.45;95209.88;5037079;28;19929;-64
2023/04/10 00:24:58;;;;;;;;;;;;;;;13.00;41.57;95212.75;5030358;28;19976;-64
2023/04/10 00:27:25;;;;;;;;;;;;;;;12.72;41.24;95213.22;5029600;28;20380;-63
2023/04/10 00:29:51;;;;;;;;;;;;;;;12.80;40.56;95223.25;5029969;28;19929;-63
2023/04/10 00:32:18;;;;;;;;;;;;;;;12.55;39.86;95204.78;5041457;28;19939;-63
2023/04/10 00:34:45;;;;;;;;;;;;;;;12.79;39.04;95200.59;5029145;28;20038;-63
2023/04/10 00:37:12;;;;;;;;;;;;;;;12.76;39.59;95203.78;5046282;28;19924;-63
2023/04/10 00:39:39;;;;;;;;;;;;;;;12.59;39.20;95205.06;5050003;28;19928;-62
2023/04/10 00:42:08;;;;;;;;;;;;;;;12.69;39.66;95200.59;5032004;28;19929;-64
2023/04/10 00:44:36;;;;;;;;;;;;;;;12.74;38.88;95203.25;5041340;28;19933;-65
2023/04/10 00:47:04;;;;;;;;;;;;;;;12.81;39.01;95198.50;5035887;28;19936;-64
2023/04/10 00:49:30;;;;;;;;;;;;;;;12.96;39.56;95203.78;5050076;28;19931;-62
2023/04/10 00:51:57;;;;;;;;;;;;;;;12.96;39.54;95193.25;5036014;28;19925;-64
2023/04/10 00:54:25;;;;;;;;;;;;;;;12.98;39.42;95196.44;5036987;28;19960;-66
2023/04/10 00:56:52;;;;;;;;;;;;;;;12.79;40.60;95189.31;5061239;28;19929;-64
2023/04/10 00:59:19;;;;;;;;;;;;;;;12.90;41.27;95189.03;5028367;28;19987;-64
2023/04/10 01:01:46;;;;;;;;;;;;;;;12.73;41.69;95185.09;5036332;28;19948;-64
2023/04/10 01:04:13;;;;;;;;;;;;;;;12.76;42.71;95181.94;5041889;28;19972;-65
2023/04/10 01:06:43;;;;;;;;;;;;;;;12.88;42.37;95175.38;5028498;28;19924;-64
2023/04/10 01:09:16;;;;;;;;;;;;;;;12.95;42.60;95178.56;5029779;28;19947;-62
2023/04/10 01:11:45;;;;;;;;;;;;;;;12.99;43.43;95170.91;5060688;28;19929;-65
2023/04/10 01:14:30;;;;;;;;;;;;;;;13.00;43.47;95175.13;5029442;28;20448;-63
2023/04/10 01:17:02;;;;;;;;;;;;;;;12.92;43.91;95179.06;5033708;28;20396;-63
2023/04/10 01:19:51;;;;;;;;;;;;;;;13.10;43.79;95170.66;5035260;28;19925;-65
2023/04/10 01:22:20;;;;;;;;;;;;;;;13.13;43.83;95179.88;5027794;28;19970;-65
2023/04/10 01:24:47;;;;;;;;;;;;;;;12.95;44.58;95178.56;5039360;28;19979;-66
2023/04/10 01:27:14;;;;;;;;;;;;;;;12.79;44.91;95174.31;5027834;28;19974;-65
2023/04/10 01:29:44;;;;;;;;;;;;;;;12.85;44.56;95173.28;5029174;28;19932;-64
2023/04/10 01:32:12;;;;;;;;;;;;;;;12.90;44.91;95177.75;5073964;28;20400;-65
2023/04/10 01:34:43;;;;;;;;;;;;;;;12.70;45.69;95165.34;5061492;28;19925;-65
2023/04/10 01:37:14;;;;;;;;;;;;;;;12.87;45.25;95170.38;5060798;28;19932;-64
2023/04/10 01:39:42;;;;;;;;;;;;;;;12.81;45.28;95171.44;5061290;28;19948;-64
2023/04/10 01:42:10;;;;;;;;;;;;;;;12.88;45.15;95172.75;5065644;28;19925;-65
2023/04/10 01:44:41;;;;;;;;;;;;;;;12.91;45.10;95172.22;5081351;28;20118;-64
2023/04/10 01:47:09;;;;;;;;;;;;;;;12.87;44.50;95176.44;5047338;28;20311;-64
2023/04/10 01:49:43;;;;;;;;;;;;;;;12.97;44.85;95171.16;5036135;28;19937;-62
2023/04/10 01:52:10;;;;;;;;;;;;;;;13.06;44.21;95180.13;5064027;28;19990;-64
2023/04/10 01:54:39;;;;;;;;;;;;;;;13.04;44.81;95177.00;5032134;28;20056;-63
2023/04/10 01:57:06;;;;;;;;;;;;;;;13.06;44.58;95180.13;5037822;28;19958;-63
2023/04/10 01:59:43;;;;;;;;;;;;;;;13.06;45.11;95180.13;5030769;28;20475;-64
2023/04/10 02:02:10;;;;;;;;;;;;;;;13.09;44.46;95179.63;5027342;28;20016;-66
2023/04/10 02:04:38;;;;;;;;;;;;;;;13.01;44.64;95177.47;5045689;28;19936;-63
2023/04/10 02:07:05;;;;;;;;;;;;;;;13.07;44.59;95173.84;5043422;28;20395;-66
2023/04/10 02:09:39;;;;;;;;;;;;;;;13.02;44.47;95173.84;5027794;28;19929;-64
2023/04/10 02:12:09;;;;;;;;;;;;;;;13.01;44.75;95166.97;5034839;28;19928;-63
2023/04/10 02:14:40;;;;;;;;;;;;;;;12.78;45.13;95156.97;5080296;28;20035;-64
2023/04/10 02:17:08;;;;;;;;;;;;;;;12.83;44.98;95154.34;5036681;28;19947;-64
2023/04/10 02:19:36;;;;;;;;;;;;;;;12.87;44.97;95151.97;5034440;28;19926;-64
2023/04/10 02:22:04;;;;;;;;;;;;;;;12.84;45.29;95148.03;5047276;28;19936;-64
2023/04/10 02:24:32;;;;;;;;;;;;;;;12.67;45.91;95155.38;5046026;28;19928;-66
2023/04/10 02:27:00;;;;;;;;;;;;;;;12.62;45.80;95146.69;5028521;28;19975;-63
2023/04/10 02:29:27;;;;;;;;;;;;;;;12.58;45.86;95149.06;5034521;28;19933;-64
2023/04/10 02:31:54;;;;;;;;;;;;;;;12.63;46.00;95143.00;5035161;28;19925;-63
2023/04/10 02:34:20;;;;;;;;;;;;;;;12.60;46.22;95141.72;5021613;28;20316;-66
2023/04/10 02:36:47;;;;;;;;;;;;;;;12.53;45.88;95135.91;5046824;28;19929;-65
2023/04/10 02:39:14;;;;;;;;;;;;;;;12.54;46.66;95140.09;5048831;28;19931;-65
2023/04/10 02:41:47;;;;;;;;;;;;;;;12.50;46.29;95133.03;5036032;28;20418;-65
2023/04/10 02:44:13;;;;;;;;;;;;;;;12.59;45.74;95126.97;5042315;28;20028;-66
2023/04/10 02:46:41;;;;;;;;;;;;;;;12.47;45.79;95131.69;5043787;28;19925;-66
2023/04/10 02:49:09;;;;;;;;;;;;;;;12.33;46.52;95128.00;5040594;28;19954;-63
2023/04/10 02:51:37;;;;;;;;;;;;;;;12.16;47.09;95127.44;5030251;28;19960;-65
2023/04/10 02:54:04;;;;;;;;;;;;;;;12.13;47.33;95123.47;5064087;28;20432;-66
2023/04/10 02:56:33;;;;;;;;;;;;;;;12.21;47.21;95124.81;5067543;28;19944;-64
2023/04/10 02:59:00;;;;;;;;;;;;;;;12.18;47.31;95118.25;5050381;28;19924;-64
2023/04/10 03:01:28;;;;;;;;;;;;;;;12.17;47.33;95123.78;5032159;28;19937;-64
2023/04/10 03:03:56;;;;;;;;;;;;;;;12.32;47.00;95121.16;5036101;28;19931;-66
2023/04/10 03:06:28;;;;;;;;;;;;;;;12.34;47.04;95119.06;5036759;28;20688;-65
2023/04/10 03:08:56;;;;;;;;;;;;;;;12.32;46.69;95123.78;5057315;28;19949;-64
2023/04/10 03:11:23;;;;;;;;;;;;;;;12.29;46.61;95116.44;5049413;28;20022;-66
2023/04/10 03:13:50;;;;;;;;;;;;;;;12.40;46.49;95120.66;5032506;28;20024;-65
2023/04/10 03:16:17;;;;;;;;;;;;;;;12.37;46.02;95121.16;5032653;28;20008;-64
2023/04/10 03:18:45;;;;;;;;;;;;;;;12.40;45.68;95117.22;5050572;28;19987;-63
2023/04/10 03:21:12;;;;;;;;;;;;;;;12.33;45.75;95122.75;5035698;28;19929;-64
2023/04/10 03:23:39;;;;;;;;;;;;;;;12.20;45.70;95124.03;5030954;28;20316;-62
2023/04/10 03:26:05;;;;;;;;;;;;;;;12.29;45.85;95129.56;5029598;28;19925;-63
2023/04/10 03:28:36;;;;;;;;;;;;;;;12.11;46.19;95127.41;5076169;28;19938;-66
2023/04/10 03:31:04;;;;;;;;;;;;;;;12.25;45.59;95136.38;5076570;28;19939;-64
2023/04/10 03:33:34;;;;;;;;;;;;;;;12.21;45.43;95128.22;5030166;28;20359;-63
2023/04/10 03:36:02;;;;;;;;;;;;;;;12.24;45.80;95134.81;5029374;28;19925;-64
2023/04/10 03:38:31;;;;;;;;;;;;;;;12.08;46.06;95131.34;5029823;28;20365;-64
2023/04/10 03:40:58;;;;;;;;;;;;;;;11.91;46.40;95137.84;5029759;28;20024;-66
2023/04/10 03:43:30;;;;;;;;;;;;;;;11.92;46.53;95136.81;5060783;28;19939;-62
2023/04/10 03:45:57;;;;;;;;;;;;;;;11.94;46.32;95139.97;5051059;28;20036;-64
2023/04/10 03:48:29;;;;;;;;;;;;;;;11.97;46.54;95147.34;5035933;28;19924;-64
2023/04/10 03:50:56;;;;;;;;;;;;;;;12.09;46.25;95137.41;5048433;28;20358;-63
2023/04/10 03:53:23;;;;;;;;;;;;;;;12.24;45.75;95142.69;5026216;28;19931;-63
2023/04/10 03:55:51;;;;;;;;;;;;;;;12.36;45.69;95147.69;5074603;28;19929;-65
2023/04/10 03:58:20;;;;;;;;;;;;;;;12.12;45.99;95152.63;5043479;28;20357;-63
2023/04/10 04:00:47;;;;;;;;;;;;;;;11.99;46.51;95158.34;5029193;28;19980;-62
2023/04/10 04:03:37;;;;;;;;;;;;;;;12.03;46.46;95146.28;5037735;28;19960;-65
2023/04/10 04:06:22;;;;;;;;;;;;;;;11.90;46.51;95152.03;5026736;28;19936;-63
2023/04/10 04:09:08;;;;;;;;;;;;;;;11.97;46.55;95155.22;5038575;28;19947;-65
2023/04/10 04:11:45;;;;;;;;;;;;;;;11.87;46.71;95163.03;5060305;28;20487;-64
2023/04/10 04:14:32;;;;;;;;;;;;;;;11.79;47.02;95159.06;5027243;28;20384;-63
2023/04/10 04:17:17;;;;;;;;;;;;;;;11.86;47.07;95161.47;5028537;28;20434;-64
2023/04/10 04:19:54;;;;;;;;;;;;;;;11.86;47.31;95158.84;5028261;28;20150;-64
2023/04/10 04:22:42;;;;;;;;;;;;;;;11.88;47.12;95162.78;5033533;28;19928;-64
2023/04/10 04:25:32;;;;;;;;;;;;;;;11.87;47.36;95163.03;5010199;28;20565;-63
2023/04/10 04:28:17;;;;;;;;;;;;;;;11.91;47.13;95167.53;4980313;28;20050;-64
2023/04/10 04:30:58;;;;;;;;;;;;;;;11.94;47.52;95163.59;4988029;28;19925;-62
2023/04/10 04:33:48;;;;;;;;;;;;;;;11.93;47.45;95164.66;4978500;28;19934;-65
2023/04/10 04:36:30;;;;;;;;;;;;;;;11.86;47.71;95169.34;4994983;28;20436;-64
2023/04/10 04:39:10;;;;;;;;;;;;;;;11.95;47.86;95173.06;4996767;28;19982;-62
2023/04/10 04:41:49;;;;;;;;;;;;;;;11.65;48.29;95172.91;4986635;28;19930;-62
2023/04/10 04:44:35;;;;;;;;;;;;;;;11.95;47.45;95173.84;4994927;28;20067;-63
2023/04/10 04:47:23;;;;;;;;;;;;;;;11.94;47.27;95176.72;5007167;28;20020;-63
2023/04/10 04:50:25;;;;;;;;;;;;;;;11.88;47.33;95172.50;4946975;29;19933;-62
2023/04/10 04:52:54;;;;;;;;;;;;;;;12.02;47.08;95179.63;4994320;28;19937;-63
2023/04/10 04:55:39;;;;;;;;;;;;;;;11.98;47.56;95180.44;4971821;28;19984;-64
2023/04/10 04:58:29;;;;;;;;;;;;;;;12.14;47.25;95187.31;4983639;28;20350;-67
2023/04/10 05:01:16;;;;;;;;;;;;;;;12.24;47.05;95182.88;4996561;28;20385;-65
2023/04/10 05:04:03;;;;;;;;;;;;;;;12.31;47.49;95181.84;5032231;28;19936;-65
2023/04/10 05:06:49;;;;;;;;;;;;;;;12.52;47.10;95183.50;5031622;28;19935;-62
2023/04/10 05:09:35;;;;;;;;;;;;;;;12.72;46.89;95183.50;5035800;28;19925;-66
2023/04/10 05:12:26;;;;;;;;;;;;;;;12.70;46.51;95181.13;5036884;28;20321;-65
2023/04/10 05:14:59;;;;;;;;;;;;;;;12.90;46.68;95180.38;5031086;28;19929;-65
2023/04/10 05:17:52;;;;;;;;;;;;;;;12.98;46.45;95183.28;5043153;28;19936;-64
2023/04/10 05:20:39;;;;;;;;;;;;;;;13.13;45.72;95180.69;5029480;28;19979;-62
2023/04/10 05:23:28;;;;;;;;;;;;;;;12.88;46.16;95178.00;5046821;28;19981;-66
2023/04/10 05:26:13;;;;;;;;;;;;;;;12.84;45.30;95181.44;5046476;28;20420;-66
2023/04/10 05:29:09;;;;;;;;;;;;;;;13.04;45.72;95176.22;5046696;28;19925;-62
2023/04/10 05:32:02;;;;;;;;;;;;;;;13.17;44.90;95176.44;5017288;28;20052;-63
2023/04/10 05:34:39;;;;;;;;;;;;;;;13.23;44.78;95180.66;5046485;28;19994;-66
2023/04/10 05:37:11;;;;;;;;;;;;;;;12.69;43.90;95176.94;5045548;28;20039;-65
2023/04/10 05:40:06;;;;;;;;;;;;;;;12.99;43.35;95179.56;5055933;28;19928;-64
2023/04/10 05:42:56;;;;;;;;;;;;;;;12.93;43.15;95175.38;5054949;28;19955;-65
2023/04/10 05:45:29;;;;;;;;;;;;;;;12.68;43.71;95177.97;5057618;28;20479;-65
2023/04/10 05:47:56;;;;;;;;;;;;;;;12.93;43.69;95185.13;5043967;28;20023;-65
2023/04/10 05:50:52;;;;;;;;;;;;;;;13.19;43.19;95181.47;5033323;28;19925;-65
2023/04/10 05:53:44;;;;;;;;;;;;;;;13.31;43.17;95181.97;5038616;28;19925;-65
2023/04/10 05:56:39;;;;;;;;;;;;;;;13.41;44.05;95186.44;5046198;28;19925;-64
2023/04/10 05:59:25;;;;;;;;;;;;;;;13.49;44.06;95183.25;5046324;28;20055;-65
2023/04/10 06:01:58;;;;;;;;;;;;;;;13.73;43.27;95179.78;5013220;28;20384;-63
2023/04/10 06:04:26;;;;;;;;;;;;;;;13.64;42.26;95181.41;5019715;28;19987;-64
2023/04/10 06:06:57;;;;;;;;;;;;;;;13.69;42.59;95183.22;4986391;28;20049;-65
2023/04/10 06:09:23;;;;;;;;;;;;;;;13.71;43.29;95186.38;5014041;28;19926;-66
2023/04/10 06:11:50;;;;;;;;;;;;;;;13.56;43.35;95181.13;4993391;28;20294;-65
2023/04/10 06:14:20;;;;;;;;;;;;;;;13.69;43.50;95188.47;5022862;28;19933;-65
2023/04/10 06:16:47;;;;;;;;;;;;;;;13.64;42.74;95177.97;4992372;28;19929;-65
2023/04/10 06:19:14;;;;;;;;;;;;;;;13.28;42.94;95184.34;5026813;28;19995;-64
2023/04/10 06:21:41;;;;;;;;;;;;;;;13.48;42.92;95176.44;4980418;28;19926;-63
2023/04/10 06:24:08;;;;;;;;;;;;;;;13.77;42.44;95174.78;4997864;28;20028;-64
2023/04/10 06:26:37;;;;;;;;;;;;;;;13.73;42.77;95176.38;4994316;28;19933;-64
2023/04/10 06:29:04;;;;;;;;;;;;;;;13.93;42.40;95169.19;5064222;28;20269;-64
2023/04/10 06:31:32;;;;;;;;;;;;;;;13.91;42.36;95175.78;5040028;28;20331;-65
2023/04/10 06:34:00;;;;;;;;;;;;;;;13.72;43.26;95172.16;5051704;28;19925;-65
2023/04/10 06:36:27;;;;;;;;;;;;;;;13.79;42.04;95177.94;5050562;28;19951;-65
2023/04/10 06:39:01;;;;;;;;;;;;;;;13.08;42.64;95185.94;5045399;28;19929;-64
2023/04/10 06:41:28;;;;;;;;;;;;;;;13.19;42.00;95179.59;5031958;28;20040;-65
2023/04/10 06:44:05;;;;;;;;;;;;;;;13.45;42.67;95182.25;5059242;28;20010;-65
2023/04/10 06:46:32;;;;;;;;;;;;;;;13.81;42.28;95186.38;5050529;28;19948;-66
2023/04/10 06:48:58;;;;;;;;;;;;;;;13.89;42.15;95188.44;5032654;28;20367;-64
2023/04/10 06:51:26;;;;;;;;;;;;;;;13.71;41.35;95192.44;5031673;28;20468;-64
2023/04/10 06:53:53;;;;;;;;;;;;;;;13.89;41.75;95198.97;5032480;28;20003;-66
2023/04/10 06:56:20;;;;;;;;;;;;;;;14.03;41.64;95195.50;5047237;28;19940;-65
2023/04/10 06:58:47;;;;;;;;;;;;;;;13.98;40.80;95194.72;5042682;28;19925;-65
2023/04/10 07:01:13;;;;;;;;;;;;;;;13.90;41.25;95190.03;5034598;28;20006;-65
2023/04/10 07:03:40;;;;;;;;;;;;;;;14.04;41.20;95191.81;5051746;28;19971;-65
2023/04/10 07:06:08;;;;;;;;;;;;;;;13.86;41.28;95188.97;5083570;28;19925;-65
2023/04/10 07:08:35;;;;;;;;;;;;;;;13.87;40.95;95185.28;5034815;28;20439;-64
2023/04/10 07:11:02;;;;;;;;;;;;;;;14.00;41.09;95192.63;5042313;28;20285;-65
2023/04/10 07:13:29;;;;;;;;;;;;;;;13.88;40.93;95186.88;5033951;28;19939;-66
2023/04/10 07:15:55;;;;;;;;;;;;;;;13.60;41.29;95187.44;5043223;28;19987;-65
2023/04/10 07:18:22;;;;;;;;;;;;;;;13.61;40.96;95186.41;5032997;28;19925;-65
2023/04/10 07:20:50;;;;;;;;;;;;;;;13.98;40.93;95197.34;5031878;28;19940;-63
2023/04/10 07:23:16;;;;;;;;;;;;;;;14.09;40.84;95196.25;5030877;28;20384;-64
2023/04/10 07:25:43;;;;;;;;;;;;;;;14.29;40.75;95188.31;5046503;28;19974;-65
2023/04/10 07:28:10;;;;;;;;;;;;;;;13.67;41.98;95194.03;5042408;28;20028;-64
2023/04/10 07:30:37;;;;;;;;;;;;;;;13.91;41.33;95197.66;5034325;28;19944;-65
2023/04/10 07:33:03;;;;;;;;;;;;;;;14.00;41.50;95203.16;5041304;28;19983;-64
2023/04/10 07:35:30;;;;;;;;;;;;;;;14.11;40.14;95191.53;5035207;28;20023;-63
2023/04/10 07:37:57;;;;;;;;;;;;;;;13.81;41.36;95196.91;5040810;28;19975;-66
2023/04/10 07:40:24;;;;;;;;;;;;;;;13.91;41.32;95192.38;5035189;28;19925;-65
2023/04/10 07:42:51;;;;;;;;;;;;;;;14.47;40.60;95192.19;5050759;28;19940;-63
2023/04/10 07:45:19;;;;;;;;;;;;;;;14.58;40.38;95194.47;5037865;28;19959;-64
2023/04/10 07:47:46;;;;;;;;;;;;;;;14.04;40.03;95196.28;5050893;28;20010;-65
2023/04/10 07:50:13;;;;;;;;;;;;;;;14.45;40.19;95199.59;5037587;28;20384;-66
2023/04/10 07:52:39;;;;;;;;;;;;;;;14.67;40.64;95195.47;5038696;28;19925;-64
2023/04/10 07:55:06;;;;;;;;;;;;;;;14.71;40.12;95195.72;5037228;28;19935;-65
2023/04/10 07:57:34;;;;;;;;;;;;;;;14.76;39.90;95204.41;5037605;28;20361;-63
2023/04/10 08:00:01;;;;;;;;;;;;;;;14.53;40.55;95194.50;5017871;28;19956;-67
2023/04/10 08:02:39;;;;;;;;;;;;;;;14.24;40.92;95191.75;5045540;28;19925;-66
2023/04/10 08:05:06;;;;;;;;;;;;;;;14.39;40.24;95193.53;5050857;28;19932;-64
2023/04/10 08:07:35;;;;;;;;;;;;;;;14.42;40.08;95193.00;5050464;28;20307;-63
2023/04/10 08:10:02;;;;;;;;;;;;;;;14.67;40.54;95189.44;5037361;28;19929;-64
2023/04/10 08:12:30;;;;;;;;;;;;;;;14.75;39.63;95192.28;5041194;28;20289;-64
2023/04/10 08:14:57;;;;;;;;;;;;;;;14.86;40.45;95190.34;5046093;28;20457;-65
2023/04/10 08:17:24;;;;;;;;;;;;;;;14.70;40.87;95192.31;5039700;28;19925;-65
2023/04/10 08:19:51;;;;;;;;;;;;;;;14.13;40.35;95189.41;5034836;28;19925;-63
2023/04/10 08:22:18;;;;;;;;;;;;;;;14.36;40.71;95191.44;5039319;28;19929;-64
2023/04/10 08:24:45;;;;;;;;;;;;;;;14.66;41.00;95188.66;5048442;28;20323;-64
2023/04/10 08:27:12;;;;;;;;;;;;;;;14.32;40.72;95193.06;5035524;28;19925;-63
2023/04/10 08:29:39;;;;;;;;;;;;;;;14.32;41.32;95190.41;5038017;28;19928;-65
2023/04/10 08:32:06;;;;;;;;;;;;;;;14.63;40.89;95189.19;5048860;28;20046;-64
2023/04/10 08:34:33;;;;;;;;;;;;;;;14.91;40.68;95188.47;5050452;28;20379;-64
2023/04/10 08:37:00;;;;;;;;;;;;;;;14.98;40.85;95191.59;5034059;28;19929;-64
2023/04/10 08:39:26;;;;;;;;;;;;;;;15.05;40.14;95186.78;5038990;28;19933;-64
2023/04/10 08:41:54;;;;;;;;;;;;;;;15.06;40.99;95187.56;5046796;28;19936;-64
2023/04/10 08:44:21;;;;;;;;;;;;;;;14.93;40.28;95194.25;5030517;28;19990;-64
2023/04/10 08:46:49;;;;;;;;;;;;;;;14.82;40.11;95184.03;5042915;28;19932;-64
2023/04/10 08:49:38;;;;;;;;;;;;;;;14.96;39.83;95180.50;5030313;28;19933;-64
2023/04/10 08:52:06;;;;;;;;;;;;;;;14.30;39.97;95189.91;5017395;28;20436;-65
2023/04/10 08:54:36;;;;;;;;;;;;;;;14.83;39.99;95175.88;5030306;28;19983;-65
2023/04/10 08:57:05;;;;;;;;;;;;;;;14.93;40.10;95182.91;5029441;28;20006;-66
2023/04/10 08:59:33;;;;;;;;;;;;;;;15.14;39.68;95174.56;5046054;28;20392;-66
2023/04/10 09:01:59;;;;;;;;;;;;;;;15.13;39.47;95173.00;5040260;28;19929;-66
2023/04/10 09:04:26;;;;;;;;;;;;;;;14.43;39.04;95176.13;5039781;28;20312;-65
2023/04/10 09:06:53;;;;;;;;;;;;;;;14.54;39.29;95172.38;5032198;28;19925;-64
2023/04/10 09:09:20;;;;;;;;;;;;;;;14.65;38.51;95175.75;5030044;28;20005;-63
2023/04/10 09:11:54;;;;;;;;;;;;;;;14.90;38.47;95167.66;5029638;28;20347;-64
2023/04/10 09:14:25;;;;;;;;;;;;;;;14.69;37.88;95156.44;5041879;28;19931;-73
2023/04/10 09:16:53;;;;;;;;;;;;;;;14.74;37.89;95169.63;5049431;28;19924;-64
2023/04/10 09:19:30;;;;;;;;;;;;;;;14.53;37.57;95160.25;5036990;28;20465;-66
2023/04/10 09:21:57;;;;;;;;;;;;;;;14.68;37.97;95160.16;5025547;28;20012;-65
2023/04/10 09:24:23;;;;;;;;;;;;;;;14.93;37.52;95159.16;5049626;28;19924;-64
2023/04/10 09:26:50;;;;;;;;;;;;;;;15.21;38.02;95158.44;5049138;28;19925;-65
2023/04/10 09:29:17;;;;;;;;;;;;;;;15.30;37.96;95167.31;5036078;28;19928;-65
2023/04/10 09:31:44;;;;;;;;;;;;;;;15.02;37.68;95160.94;5037381;28;19925;-65
2023/04/10 09:34:12;;;;;;;;;;;;;;;14.84;37.95;95156.34;5029341;28;19925;-65
2023/04/10 09:36:40;;;;;;;;;;;;;;;14.75;37.90;95155.34;5029035;28;19936;-66
2023/04/10 09:39:08;;;;;;;;;;;;;;;14.87;37.63;95157.66;5042725;28;19967;-64
2023/04/10 09:41:46;;;;;;;;;;;;;;;15.04;38.33;95153.53;5029023;28;19980;-65
2023/04/10 09:44:13;;;;;;;;;;;;;;;14.77;37.60;95153.22;5040893;28;20384;-64
2023/04/10 09:46:39;;;;;;;;;;;;;;;14.87;37.91;95157.66;5031207;28;20016;-66
2023/04/10 09:49:06;;;;;;;;;;;;;;;14.97;38.12;95153.06;5040472;28;20371;-64
2023/04/10 09:51:34;;;;;;;;;;;;;;;15.15;37.17;95155.03;5045702;28;19933;-64
2023/04/10 09:54:02;;;;;;;;;;;;;;;14.94;37.40;95153.63;5033801;28;19929;-63
2023/04/10 09:56:29;;;;;;;;;;;;;;;14.97;37.52;95153.06;5049855;28;19924;-65
2023/04/10 09:58:57;;;;;;;;;;;;;;;15.37;36.80;95146.66;5042847;28;20534;-64
2023/04/10 10:01:25;;;;;;;;;;;;;;;15.15;36.47;95152.41;5032132;28;20364;-67
2023/04/10 10:03:53;;;;;;;;;;;;;;;15.02;37.41;95144.31;5043493;28;19943;-64
2023/04/10 10:06:20;;;;;;;;;;;;;;;14.96;36.42;95151.50;5032885;28;19929;-64
2023/04/10 10:08:47;;;;;;;;;;;;;;;15.42;36.17;95140.59;5033250;28;19929;-65
2023/04/10 10:11:17;;;;;;;;;;;;;;;15.02;36.48;95137.19;5032636;28;19936;-63
2023/04/10 10:13:48;;;;;;;;;;;;;;;15.63;36.60;95136.66;5046094;28;19929;-63
2023/04/10 10:16:25;;;;;;;;;;;;;;;15.70;36.57;95129.97;5045135;28;19925;-64
2023/04/10 10:19:11;;;;;;;;;;;;;;;15.42;36.61;95124.75;5041738;28;19975;-64
2023/04/10 10:21:38;;;;;;;;;;;;;;;15.37;36.57;95125.53;5045530;28;19968;-64
2023/04/10 10:24:08;;;;;;;;;;;;;;;15.68;36.14;95115.47;5032207;28;19955;-65
2023/04/10 10:26:37;;;;;;;;;;;;;;;15.82;35.77;95111.84;5032251;28;20367;-64
2023/04/10 10:29:05;;;;;;;;;;;;;;;15.96;35.21;95109.31;5035591;28;19986;-64
2023/04/10 10:31:33;;;;;;;;;;;;;;;15.79;35.50;95111.63;5041808;28;19983;-64
2023/04/10 10:34:09;;;;;;;;;;;;;;;16.17;35.50;95106.13;5050144;28;19924;-63
2023/04/10 10:36:37;;;;;;;;;;;;;;;16.31;35.11;95102.78;5050930;28;19925;-64
2023/04/10 10:39:23;;;;;;;;;;;;;;;16.55;35.42;95104.31;5052536;28;19964;-65
2023/04/10 10:41:55;;;;;;;;;;;;;;;16.39;35.77;95089.72;5035937;28;19983;-65
2023/04/10 10:44:28;;;;;;;;;;;;;;;16.32;35.64;95089.28;5042732;28;20307;-64
2023/04/10 10:46:58;;;;;;;;;;;;;;;16.46;34.65;95098.06;5033988;28;19928;-63
2023/04/10 10:49:44;;;;;;;;;;;;;;;16.15;35.77;95088.97;5032377;28;20746;-65
2023/04/10 10:52:10;;;;;;;;;;;;;;;15.80;34.62;95076.25;5020165;28;19998;-64
2023/04/10 10:54:37;;;;;;;;;;;;;;;16.26;35.37;95089.66;5032498;28;20016;-64
2023/04/10 10:57:41;;;;;;;;;;;;;;;16.41;34.96;95076.97;5032031;28;19932;-65
2023/04/10 11:00:09;;;;;;;;;;;;;;;16.23;35.17;95075.13;5058979;28;19929;-66
2023/04/10 11:02:35;;;;;;;;;;;;;;;16.83;34.47;95071.59;5038268;28;20352;-65
2023/04/10 11:05:02;;;;;;;;;;;;;;;17.21;34.40;95059.03;5052085;28;19925;-64
2023/04/10 11:08:01;;;;;;;;;;;;;;;17.50;34.21;95056.94;5050988;28;20265;-63
2023/04/10 11:10:47;;;;;;;;;;;;;;;18.08;33.26;95046.47;5054403;28;20424;-64
2023/04/10 11:13:15;;;;;;;;;;;;;;;18.47;32.75;95046.69;5044185;28;19986;-64
2023/04/10 11:15:42;;;;;;;;;;;;;;;18.21;32.12;95046.44;5031863;28;19933;-63
2023/04/10 11:18:09;;;;;;;;;;;;;;;18.20;31.66;95044.09;5047396;28;19928;-64
2023/04/10 11:20:55;;;;;;;;;;;;;;;17.88;31.52;95044.25;5041953;28;19975;-63
2023/04/10 11:23:22;;;;;;;;;;;;;;;17.55;32.04;95040.16;5044345;28;19948;-65
2023/04/10 11:25:50;;;;;;;;;;;;;;;16.84;34.12;95040.63;5045089;28;19996;-64
2023/04/10 11:28:33;;;;;;;;;;;;;;;16.53;35.04;95042.19;5030966;28;20521;-65
2023/04/10 11:31:35;;;;;;;;;;;;;;;16.35;35.03;95046.38;5050584;28;19936;-64
2023/04/10 11:34:02;;;;;;;;;;;;;;;16.48;35.02;95048.34;5034231;28;20354;-65
2023/04/10 11:36:30;;;;;;;;;;;;;;;16.73;34.77;95037.34;5048846;28;19951;-64
2023/04/10 11:38:57;;;;;;;;;;;;;;;16.85;34.48;95034.25;5053641;28;19925;-65
2023/04/10 11:41:29;;;;;;;;;;;;;;;17.04;35.00;95035.00;5056199;28;20052;-64
2023/04/10 11:43:56;;;;;;;;;;;;;;;17.29;33.83;95045.13;5068361;28;19959;-63
2023/04/10 11:46:23;;;;;;;;;;;;;;;17.19;33.33;95035.50;5054696;28;19935;-64
2023/04/10 11:49:04;;;;;;;;;;;;;;;16.92;34.10;95038.09;5061245;28;20737;-64
2023/04/10 11:51:31;;;;;;;;;;;;;;;16.65;33.96;95050.47;5063608;28;20579;-64
2023/04/10 11:54:05;;;;;;;;;;;;;;;16.56;34.08;95038.97;5059187;28;19925;-64
2023/04/10 11:56:31;;;;;;;;;;;;;;;16.37;34.10;95043.47;5051486;28;19986;-63
2023/04/10 11:58:58;;;;;;;;;;;;;;;16.65;34.52;95042.53;5047216;28;19955;-65
2023/04/10 12:01:25;;;;;;;;;;;;;;;16.40;33.57;95038.41;5049043;28;19928;-64
2023/04/10 12:03:52;;;;;;;;;;;;;;;16.17;34.46;95036.59;5061877;28;19978;-63
2023/04/10 12:06:19;;;;;;;;;;;;;;;16.16;34.42;95042.97;5067582;28;19928;-63
2023/04/10 12:08:48;;;;;;;;;;;;;;;16.46;34.50;95037.22;5054539;28;19967;-65
2023/04/10 12:11:16;;;;;;;;;;;;;;;16.17;34.96;95044.53;5037889;28;19933;-64
2023/04/10 12:13:43;;;;;;;;;;;;;;;15.97;36.09;95042.16;5030409;28;19940;-64
2023/04/10 12:16:10;;;;;;;;;;;;;;;15.83;37.92;95057.97;5043181;28;19972;-64
2023/04/10 12:18:37;;;;;;;;;;;;;;;15.34;40.01;95067.22;5017787;28;19986;-64
2023/04/10 12:21:05;;;;;;;;;;;;;;;15.21;39.88;95069.47;5043153;28;19939;-64
2023/04/10 12:23:36;;;;;;;;;;;;;;;15.27;40.29;95068.31;5038470;28;20017;-64
2023/04/10 12:26:11;;;;;;;;;;;;;;;14.92;41.67;95058.13;5032476;28;19928;-64
2023/04/10 12:28:40;;;;;;;;;;;;;;;14.91;42.30;95059.19;5030690;28;19983;-65
2023/04/10 12:31:07;;;;;;;;;;;;;;;14.81;42.84;95067.22;5030209;28;20419;-63
2023/04/10 12:33:33;;;;;;;;;;;;;;;14.55;43.80;95060.56;5030773;28;19932;-65
2023/04/10 12:36:00;;;;;;;;;;;;;;;14.26;44.74;95057.03;5043141;28;19940;-64
2023/04/10 12:38:34;;;;;;;;;;;;;;;14.31;44.68;95046.50;5029884;28;20028;-64
2023/04/10 12:41:01;;;;;;;;;;;;;;;14.32;44.64;95047.28;5030511;28;19986;-64
2023/04/10 12:43:35;;;;;;;;;;;;;;;14.26;42.96;95051.78;5029541;28;19969;-65
2023/04/10 12:46:02;;;;;;;;;;;;;;;14.32;42.33;95055.97;5030081;28;20295;-65
2023/04/10 12:48:29;;;;;;;;;;;;;;;14.62;42.12;95055.75;5033844;28;20446;-65
2023/04/10 12:50:56;;;;;;;;;;;;;;;14.94;41.63;95053.34;5039121;28;20384;-64
2023/04/10 12:53:24;;;;;;;;;;;;;;;15.23;42.14;95051.50;5042533;28;19925;-64
2023/04/10 12:55:58;;;;;;;;;;;;;;;14.85;43.01;95055.00;5041952;28;19986;-64
2023/04/10 12:58:29;;;;;;;;;;;;;;;15.21;42.06;95042.28;5035744;28;20398;-63
2023/04/10 13:00:57;;;;;;;;;;;;;;;15.54;41.23;95046.69;5049795;28;19924;-65
2023/04/10 13:03:24;;;;;;;;;;;;;;;16.09;40.58;95031.97;5048387;28;19929;-65
2023/04/10 13:05:52;;;;;;;;;;;;;;;16.17;40.63;95028.69;5030083;28;20396;-64
2023/04/10 13:08:19;;;;;;;;;;;;;;;15.77;39.95;95030.03;5042380;28;19928;-64